sensor_id;sensor_type;location;lat;lon;timestamp;P1;durP1;ratioP1;P2;durP2;ratioP2
21554;SDS011;10938;44.794;-0.676;2023-03-12T00:00:38;8.60;;;2.30;;
21554;SDS011;10938;44.794;-0.676;2023-03-12T00:03:04;7.88;;;2.33;;
21554;SDS011;10938;44.794;-0.676;2023-03-12T00:05:29;7.00;;;2.23;;
21554;SDS011;10938;44.794;-0.676;2023-03-12T00:07:54;9.97;;;2.40;;
21554;SDS011;10938;44.794;-0.676;2023-03-12T00:10:23;8.93;;;2.30;;
21554;SDS011;10938;44.794;-0.676;2023-03-12T00:12:48;3.53;;;1.50;;
21554;SDS011;10938;44.794;-0.676;2023-03-12T00:15:14;5.67;;;2.20;;
21554;SDS011;10938;44.794;-0.676;2023-03-12T00:17:39;7.22;;;1.90;;
21554;SDS011;10938;44.794;-0.676;2023-03-12T00:20:04;5.27;;;1.73;;
21554;SDS011;10938;44.794;-0.676;2023-03-12T00:22:31;6.05;;;2.40;;
21554;SDS011;10938;44.794;-0.676;2023-03-12T00:24:56;7.30;;;2.22;;
21554;SDS011;10938;44.794;-0.676;2023-03-12T00:27:22;6.45;;;1.90;;
21554;SDS011;10938;44.794;-0.676;2023-03-12T00:29:47;3.80;;;1.70;;
21554;SDS011;10938;44.794;-0.676;2023-03-12T00:32:13;5.15;;;2.20;;
21554;SDS011;10938;44.794;-0.676;2023-03-12T00:34:38;5.57;;;2.50;;
21554;SDS011;10938;44.794;-0.676;2023-03-12T00:37:03;5.93;;;2.50;;
21554;SDS011;10938;44.794;-0.676;2023-03-12T00:39:29;5.53;;;2.00;;
21554;SDS011;10938;44.794;-0.676;2023-03-12T00:41:54;5.25;;;2.08;;
21554;SDS011;10938;44.794;-0.676;2023-03-12T00:44:19;5.17;;;1.80;;
21554;SDS011;10938;44.794;-0.676;2023-03-12T00:46:44;5.60;;;1.80;;
21554;SDS011;10938;44.794;-0.676;2023-03-12T00:49:10;5.03;;;1.97;;
21554;SDS011;10938;44.794;-0.676;2023-03-12T00:51:36;7.70;;;2.50;;
21554;SDS011;10938;44.794;-0.676;2023-03-12T00:54:01;5.82;;;1.80;;
21554;SDS011;10938;44.794;-0.676;2023-03-12T00:56:26;4.70;;;1.73;;
21554;SDS011;10938;44.794;-0.676;2023-03-12T00:58:51;7.23;;;2.03;;
21554;SDS011;10938;44.794;-0.676;2023-03-12T01:01:17;6.50;;;2.10;;
21554;SDS011;10938;44.794;-0.676;2023-03-12T01:03:44;6.45;;;1.70;;
21554;SDS011;10938;44.794;-0.676;2023-03-12T01:06:12;3.08;;;1.58;;
21554;SDS011;10938;44.794;-0.676;2023-03-12T01:08:37;5.55;;;1.50;;
21554;SDS011;10938;44.794;-0.676;2023-03-12T01:11:03;4.70;;;1.27;;
21554;SDS011;10938;44.794;-0.676;2023-03-12T01:13:28;6.38;;;1.70;;
21554;SDS011;10938;44.794;-0.676;2023-03-12T01:15:53;6.23;;;1.20;;
21554;SDS011;10938;44.794;-0.676;2023-03-12T01:18:19;3.83;;;1.27;;
21554;SDS011;10938;44.794;-0.676;2023-03-12T01:20:44;3.20;;;1.30;;
21554;SDS011;10938;44.794;-0.676;2023-03-12T01:23:09;2.53;;;1.10;;
21554;SDS011;10938;44.794;-0.676;2023-03-12T01:25:35;5.35;;;1.40;;
21554;SDS011;10938;44.794;-0.676;2023-03-12T01:28:00;4.63;;;1.55;;
21554;SDS011;10938;44.794;-0.676;2023-03-12T01:30:26;3.25;;;1.48;;
21554;SDS011;10938;44.794;-0.676;2023-03-12T01:32:52;3.78;;;1.55;;
21554;SDS011;10938;44.794;-0.676;2023-03-12T01:35:17;2.92;;;1.08;;
21554;SDS011;10938;44.794;-0.676;2023-03-12T01:37:42;3.75;;;1.42;;
21554;SDS011;10938;44.794;-0.676;2023-03-12T01:40:11;3.40;;;1.30;;
21554;SDS011;10938;44.794;-0.676;2023-03-12T01:42:38;5.30;;;1.60;;
21554;SDS011;10938;44.794;-0.676;2023-03-12T01:45:03;3.93;;;1.10;;
21554;SDS011;10938;44.794;-0.676;2023-03-12T01:47:29;5.80;;;1.27;;
21554;SDS011;10938;44.794;-0.676;2023-03-12T01:49:57;3.65;;;1.10;;
21554;SDS011;10938;44.794;-0.676;2023-03-12T01:52:25;4.25;;;1.20;;
21554;SDS011;10938;44.794;-0.676;2023-03-12T01:57:21;4.00;;;1.10;;
21554;SDS011;10938;44.794;-0.676;2023-03-12T01:59:51;3.95;;;1.38;;
21554;SDS011;10938;44.794;-0.676;2023-03-12T02:07:51;4.15;;;0.85;;
21554;SDS011;10938;44.794;-0.676;2023-03-12T02:10:17;6.28;;;0.90;;
21554;SDS011;10938;44.794;-0.676;2023-03-12T02:12:43;1.70;;;0.82;;
21554;SDS011;10938;44.794;-0.676;2023-03-12T02:15:08;4.30;;;1.33;;
21554;SDS011;10938;44.794;-0.676;2023-03-12T02:17:34;2.05;;;0.80;;
21554;SDS011;10938;44.794;-0.676;2023-03-12T02:22:25;1.80;;;0.70;;
21554;SDS011;10938;44.794;-0.676;2023-03-12T02:27:35;3.00;;;0.70;;
21554;SDS011;10938;44.794;-0.676;2023-03-12T02:30:01;1.48;;;0.80;;
21554;SDS011;10938;44.794;-0.676;2023-03-12T02:32:28;3.08;;;0.70;;
21554;SDS011;10938;44.794;-0.676;2023-03-12T02:34:55;2.88;;;0.60;;
21554;SDS011;10938;44.794;-0.676;2023-03-12T02:37:20;2.90;;;0.85;;
21554;SDS011;10938;44.794;-0.676;2023-03-12T02:39:49;1.60;;;0.77;;
21554;SDS011;10938;44.794;-0.676;2023-03-12T02:42:15;1.35;;;0.73;;
21554;SDS011;10938;44.794;-0.676;2023-03-12T02:44:40;1.92;;;0.70;;
21554;SDS011;10938;44.794;-0.676;2023-03-12T02:47:07;3.63;;;0.80;;
21554;SDS011;10938;44.794;-0.676;2023-03-12T02:49:33;2.53;;;0.88;;
21554;SDS011;10938;44.794;-0.676;2023-03-12T02:52:01;1.65;;;0.80;;
21554;SDS011;10938;44.794;-0.676;2023-03-12T02:54:27;1.90;;;0.70;;
21554;SDS011;10938;44.794;-0.676;2023-03-12T02:56:52;2.53;;;0.90;;
21554;SDS011;10938;44.794;-0.676;2023-03-12T02:59:18;1.60;;;0.70;;
21554;SDS011;10938;44.794;-0.676;2023-03-12T03:01:45;1.75;;;0.77;;
21554;SDS011;10938;44.794;-0.676;2023-03-12T03:04:11;2.72;;;0.77;;
21554;SDS011;10938;44.794;-0.676;2023-03-12T03:06:37;1.92;;;0.60;;
21554;SDS011;10938;44.794;-0.676;2023-03-12T03:09:03;2.25;;;0.65;;
21554;SDS011;10938;44.794;-0.676;2023-03-12T03:11:29;1.50;;;0.70;;
21554;SDS011;10938;44.794;-0.676;2023-03-12T03:13:54;1.75;;;0.55;;
21554;SDS011;10938;44.794;-0.676;2023-03-12T03:16:20;1.52;;;0.50;;
21554;SDS011;10938;44.794;-0.676;2023-03-12T03:18:45;1.88;;;0.60;;
21554;SDS011;10938;44.794;-0.676;2023-03-12T03:21:11;1.92;;;0.70;;
21554;SDS011;10938;44.794;-0.676;2023-03-12T03:23:41;1.33;;;0.80;;
21554;SDS011;10938;44.794;-0.676;2023-03-12T03:26:06;1.85;;;0.70;;
21554;SDS011;10938;44.794;-0.676;2023-03-12T03:28:31;3.57;;;0.60;;
21554;SDS011;10938;44.794;-0.676;2023-03-12T03:30:57;1.33;;;0.60;;
21554;SDS011;10938;44.794;-0.676;2023-03-12T03:33:25;1.92;;;0.60;;
21554;SDS011;10938;44.794;-0.676;2023-03-12T03:35:50;1.52;;;0.50;;
21554;SDS011;10938;44.794;-0.676;2023-03-12T03:38:16;1.83;;;0.52;;
21554;SDS011;10938;44.794;-0.676;2023-03-12T03:40:41;2.28;;;0.80;;
21554;SDS011;10938;44.794;-0.676;2023-03-12T03:43:06;1.13;;;0.52;;
21554;SDS011;10938;44.794;-0.676;2023-03-12T03:45:31;1.98;;;0.85;;
21554;SDS011;10938;44.794;-0.676;2023-03-12T03:47:57;2.00;;;0.70;;
21554;SDS011;10938;44.794;-0.676;2023-03-12T03:50:22;3.20;;;1.30;;
21554;SDS011;10938;44.794;-0.676;2023-03-12T03:52:47;5.32;;;1.38;;
21554;SDS011;10938;44.794;-0.676;2023-03-12T03:55:13;0.93;;;0.67;;
21554;SDS011;10938;44.794;-0.676;2023-03-12T03:57:38;1.52;;;0.70;;
21554;SDS011;10938;44.794;-0.676;2023-03-12T04:00:04;2.90;;;0.80;;
21554;SDS011;10938;44.794;-0.676;2023-03-12T04:02:33;2.10;;;0.82;;
21554;SDS011;10938;44.794;-0.676;2023-03-12T04:04:59;3.35;;;0.80;;
21554;SDS011;10938;44.794;-0.676;2023-03-12T04:07:25;3.67;;;0.93;;
21554;SDS011;10938;44.794;-0.676;2023-03-12T04:09:50;0.95;;;0.70;;
21554;SDS011;10938;44.794;-0.676;2023-03-12T04:12:16;4.25;;;0.90;;
21554;SDS011;10938;44.794;-0.676;2023-03-12T04:14:41;6.78;;;1.20;;
21554;SDS011;10938;44.794;-0.676;2023-03-12T04:17:06;2.55;;;1.08;;
21554;SDS011;10938;44.794;-0.676;2023-03-12T04:19:32;3.92;;;1.10;;
21554;SDS011;10938;44.794;-0.676;2023-03-12T04:21:57;2.42;;;0.88;;
21554;SDS011;10938;44.794;-0.676;2023-03-12T04:24:22;2.43;;;1.07;;
21554;SDS011;10938;44.794;-0.676;2023-03-12T04:26:48;3.35;;;0.82;;
21554;SDS011;10938;44.794;-0.676;2023-03-12T04:29:13;4.80;;;1.45;;
21554;SDS011;10938;44.794;-0.676;2023-03-12T04:31:38;4.53;;;1.30;;
21554;SDS011;10938;44.794;-0.676;2023-03-12T04:34:04;4.83;;;1.17;;
21554;SDS011;10938;44.794;-0.676;2023-03-12T04:36:29;4.43;;;1.30;;
21554;SDS011;10938;44.794;-0.676;2023-03-12T04:38:55;4.72;;;1.52;;
21554;SDS011;10938;44.794;-0.676;2023-03-12T04:41:20;4.10;;;1.23;;
21554;SDS011;10938;44.794;-0.676;2023-03-12T04:43:45;2.87;;;1.00;;
21554;SDS011;10938;44.794;-0.676;2023-03-12T04:46:11;5.50;;;1.20;;
21554;SDS011;10938;44.794;-0.676;2023-03-12T04:48:36;4.57;;;1.10;;
21554;SDS011;10938;44.794;-0.676;2023-03-12T04:51:02;2.58;;;0.63;;
21554;SDS011;10938;44.794;-0.676;2023-03-12T04:53:27;3.65;;;0.85;;
21554;SDS011;10938;44.794;-0.676;2023-03-12T04:55:53;4.45;;;0.80;;
21554;SDS011;10938;44.794;-0.676;2023-03-12T04:58:18;4.57;;;1.20;;
21554;SDS011;10938;44.794;-0.676;2023-03-12T05:00:44;3.60;;;1.20;;
21554;SDS011;10938;44.794;-0.676;2023-03-12T05:03:09;1.27;;;0.70;;
21554;SDS011;10938;44.794;-0.676;2023-03-12T05:05:35;2.80;;;0.90;;
21554;SDS011;10938;44.794;-0.676;2023-03-12T05:08:01;4.22;;;0.95;;
21554;SDS011;10938;44.794;-0.676;2023-03-12T05:10:26;5.28;;;1.33;;
21554;SDS011;10938;44.794;-0.676;2023-03-12T05:12:51;5.73;;;1.10;;
21554;SDS011;10938;44.794;-0.676;2023-03-12T05:15:17;2.35;;;0.73;;
21554;SDS011;10938;44.794;-0.676;2023-03-12T05:17:42;2.85;;;0.70;;
21554;SDS011;10938;44.794;-0.676;2023-03-12T05:20:08;3.50;;;1.10;;
21554;SDS011;10938;44.794;-0.676;2023-03-12T05:22:33;2.83;;;0.95;;
21554;SDS011;10938;44.794;-0.676;2023-03-12T05:24:59;2.87;;;0.90;;
21554;SDS011;10938;44.794;-0.676;2023-03-12T05:27:24;2.58;;;0.73;;
21554;SDS011;10938;44.794;-0.676;2023-03-12T05:29:50;4.75;;;0.73;;
21554;SDS011;10938;44.794;-0.676;2023-03-12T05:32:15;5.43;;;1.20;;
21554;SDS011;10938;44.794;-0.676;2023-03-12T05:34:43;5.57;;;1.10;;
21554;SDS011;10938;44.794;-0.676;2023-03-12T05:37:09;6.07;;;1.75;;
21554;SDS011;10938;44.794;-0.676;2023-03-12T05:39:34;5.00;;;1.00;;
21554;SDS011;10938;44.794;-0.676;2023-03-12T05:41:59;4.00;;;0.85;;
21554;SDS011;10938;44.794;-0.676;2023-03-12T05:44:25;4.90;;;1.20;;
21554;SDS011;10938;44.794;-0.676;2023-03-12T05:46:51;4.68;;;1.00;;
21554;SDS011;10938;44.794;-0.676;2023-03-12T05:49:17;3.17;;;0.85;;
21554;SDS011;10938;44.794;-0.676;2023-03-12T05:51:42;5.13;;;1.20;;
21554;SDS011;10938;44.794;-0.676;2023-03-12T05:54:08;4.00;;;0.80;;
21554;SDS011;10938;44.794;-0.676;2023-03-12T05:56:34;3.97;;;1.13;;
21554;SDS011;10938;44.794;-0.676;2023-03-12T05:59:00;6.30;;;1.30;;
21554;SDS011;10938;44.794;-0.676;2023-03-12T06:01:26;3.90;;;1.20;;
21554;SDS011;10938;44.794;-0.676;2023-03-12T06:03:51;3.42;;;1.00;;
21554;SDS011;10938;44.794;-0.676;2023-03-12T06:06:17;4.13;;;1.30;;
21554;SDS011;10938;44.794;-0.676;2023-03-12T06:08:42;3.35;;;1.10;;
21554;SDS011;10938;44.794;-0.676;2023-03-12T06:11:08;4.75;;;1.25;;
21554;SDS011;10938;44.794;-0.676;2023-03-12T06:13:34;5.13;;;1.70;;
21554;SDS011;10938;44.794;-0.676;2023-03-12T06:16:06;4.30;;;1.13;;
21554;SDS011;10938;44.794;-0.676;2023-03-12T06:18:32;5.88;;;1.20;;
21554;SDS011;10938;44.794;-0.676;2023-03-12T06:21:07;4.30;;;1.52;;
21554;SDS011;10938;44.794;-0.676;2023-03-12T06:23:33;3.47;;;1.27;;
21554;SDS011;10938;44.794;-0.676;2023-03-12T06:25:58;7.18;;;1.25;;
21554;SDS011;10938;44.794;-0.676;2023-03-12T06:28:23;6.50;;;1.73;;
21554;SDS011;10938;44.794;-0.676;2023-03-12T06:30:49;9.30;;;1.83;;
21554;SDS011;10938;44.794;-0.676;2023-03-12T06:33:16;7.88;;;1.55;;
21554;SDS011;10938;44.794;-0.676;2023-03-12T06:35:41;5.40;;;1.73;;
21554;SDS011;10938;44.794;-0.676;2023-03-12T06:38:07;5.65;;;1.60;;
21554;SDS011;10938;44.794;-0.676;2023-03-12T06:40:32;14.10;;;2.23;;
21554;SDS011;10938;44.794;-0.676;2023-03-12T06:42:57;7.53;;;1.80;;
21554;SDS011;10938;44.794;-0.676;2023-03-12T06:45:22;5.80;;;1.70;;
21554;SDS011;10938;44.794;-0.676;2023-03-12T06:47:48;6.05;;;1.90;;
21554;SDS011;10938;44.794;-0.676;2023-03-12T06:50:13;5.82;;;1.88;;
21554;SDS011;10938;44.794;-0.676;2023-03-12T06:52:38;4.78;;;1.30;;
21554;SDS011;10938;44.794;-0.676;2023-03-12T06:55:04;5.53;;;2.28;;
21554;SDS011;10938;44.794;-0.676;2023-03-12T06:57:30;5.68;;;1.85;;
21554;SDS011;10938;44.794;-0.676;2023-03-12T06:59:55;5.20;;;1.80;;
21554;SDS011;10938;44.794;-0.676;2023-03-12T07:02:20;3.50;;;1.50;;
21554;SDS011;10938;44.794;-0.676;2023-03-12T07:04:49;6.13;;;1.85;;
21554;SDS011;10938;44.794;-0.676;2023-03-12T07:07:14;6.90;;;1.98;;
21554;SDS011;10938;44.794;-0.676;2023-03-12T07:09:41;4.47;;;1.50;;
21554;SDS011;10938;44.794;-0.676;2023-03-12T07:12:06;7.43;;;1.90;;
21554;SDS011;10938;44.794;-0.676;2023-03-12T07:14:31;8.30;;;1.98;;
21554;SDS011;10938;44.794;-0.676;2023-03-12T07:16:57;6.65;;;2.10;;
21554;SDS011;10938;44.794;-0.676;2023-03-12T07:19:23;5.20;;;1.73;;
21554;SDS011;10938;44.794;-0.676;2023-03-12T07:21:48;9.85;;;1.65;;
21554;SDS011;10938;44.794;-0.676;2023-03-12T07:24:13;9.37;;;2.60;;
21554;SDS011;10938;44.794;-0.676;2023-03-12T07:26:38;7.63;;;1.77;;
21554;SDS011;10938;44.794;-0.676;2023-03-12T07:29:04;7.67;;;2.30;;
21554;SDS011;10938;44.794;-0.676;2023-03-12T07:31:29;7.67;;;2.00;;
21554;SDS011;10938;44.794;-0.676;2023-03-12T07:33:54;8.73;;;2.28;;
21554;SDS011;10938;44.794;-0.676;2023-03-12T07:36:20;10.07;;;2.60;;
21554;SDS011;10938;44.794;-0.676;2023-03-12T07:38:45;7.20;;;2.23;;
21554;SDS011;10938;44.794;-0.676;2023-03-12T07:41:11;6.93;;;2.20;;
21554;SDS011;10938;44.794;-0.676;2023-03-12T07:43:37;7.53;;;1.67;;
21554;SDS011;10938;44.794;-0.676;2023-03-12T07:46:02;8.47;;;2.03;;
21554;SDS011;10938;44.794;-0.676;2023-03-12T07:48:27;8.80;;;2.47;;
21554;SDS011;10938;44.794;-0.676;2023-03-12T07:50:52;7.32;;;2.03;;
21554;SDS011;10938;44.794;-0.676;2023-03-12T07:53:18;6.23;;;2.27;;
21554;SDS011;10938;44.794;-0.676;2023-03-12T07:55:44;9.48;;;2.63;;
21554;SDS011;10938;44.794;-0.676;2023-03-12T07:58:10;6.93;;;2.60;;
21554;SDS011;10938;44.794;-0.676;2023-03-12T08:00:37;8.55;;;2.35;;
21554;SDS011;10938;44.794;-0.676;2023-03-12T08:03:02;6.40;;;2.20;;
21554;SDS011;10938;44.794;-0.676;2023-03-12T08:05:27;8.20;;;2.50;;
21554;SDS011;10938;44.794;-0.676;2023-03-12T08:07:53;8.57;;;2.83;;
21554;SDS011;10938;44.794;-0.676;2023-03-12T08:10:18;10.48;;;2.55;;
21554;SDS011;10938;44.794;-0.676;2023-03-12T08:12:44;12.07;;;3.28;;
21554;SDS011;10938;44.794;-0.676;2023-03-12T08:15:09;8.73;;;2.70;;
21554;SDS011;10938;44.794;-0.676;2023-03-12T08:17:36;10.88;;;3.20;;
21554;SDS011;10938;44.794;-0.676;2023-03-12T08:20:02;11.15;;;2.95;;
21554;SDS011;10938;44.794;-0.676;2023-03-12T08:22:28;8.70;;;2.60;;
21554;SDS011;10938;44.794;-0.676;2023-03-12T08:24:54;7.93;;;2.67;;
21554;SDS011;10938;44.794;-0.676;2023-03-12T08:27:19;9.77;;;4.30;;
21554;SDS011;10938;44.794;-0.676;2023-03-12T08:29:44;13.90;;;5.93;;
21554;SDS011;10938;44.794;-0.676;2023-03-12T08:32:10;16.60;;;5.60;;
21554;SDS011;10938;44.794;-0.676;2023-03-12T08:34:35;17.70;;;6.13;;
21554;SDS011;10938;44.794;-0.676;2023-03-12T08:37:00;13.65;;;4.35;;
21554;SDS011;10938;44.794;-0.676;2023-03-12T08:39:26;15.13;;;4.05;;
21554;SDS011;10938;44.794;-0.676;2023-03-12T08:41:52;11.98;;;3.13;;
21554;SDS011;10938;44.794;-0.676;2023-03-12T08:44:20;8.30;;;2.75;;
21554;SDS011;10938;44.794;-0.676;2023-03-12T08:46:45;8.73;;;3.03;;
21554;SDS011;10938;44.794;-0.676;2023-03-12T08:49:11;13.65;;;3.50;;
21554;SDS011;10938;44.794;-0.676;2023-03-12T08:51:37;9.32;;;2.53;;
21554;SDS011;10938;44.794;-0.676;2023-03-12T08:54:02;9.40;;;3.45;;
21554;SDS011;10938;44.794;-0.676;2023-03-12T08:56:29;12.98;;;3.13;;
21554;SDS011;10938;44.794;-0.676;2023-03-12T08:58:54;11.02;;;2.80;;
21554;SDS011;10938;44.794;-0.676;2023-03-12T09:01:20;10.83;;;2.90;;
21554;SDS011;10938;44.794;-0.676;2023-03-12T09:03:45;9.50;;;2.80;;
21554;SDS011;10938;44.794;-0.676;2023-03-12T09:06:13;12.20;;;3.50;;
21554;SDS011;10938;44.794;-0.676;2023-03-12T09:08:41;12.43;;;3.78;;
21554;SDS011;10938;44.794;-0.676;2023-03-12T09:11:07;11.23;;;3.40;;
21554;SDS011;10938;44.794;-0.676;2023-03-12T09:13:33;11.20;;;3.55;;
21554;SDS011;10938;44.794;-0.676;2023-03-12T09:15:59;10.90;;;3.42;;
21554;SDS011;10938;44.794;-0.676;2023-03-12T09:18:25;10.98;;;2.60;;
21554;SDS011;10938;44.794;-0.676;2023-03-12T09:20:50;11.77;;;2.90;;
21554;SDS011;10938;44.794;-0.676;2023-03-12T09:23:15;8.50;;;2.78;;
21554;SDS011;10938;44.794;-0.676;2023-03-12T09:25:43;10.13;;;3.73;;
21554;SDS011;10938;44.794;-0.676;2023-03-12T09:28:09;11.40;;;6.18;;
21554;SDS011;10938;44.794;-0.676;2023-03-12T09:30:34;14.67;;;6.83;;
21554;SDS011;10938;44.794;-0.676;2023-03-12T09:32:59;13.57;;;5.23;;
21554;SDS011;10938;44.794;-0.676;2023-03-12T09:35:24;10.23;;;4.90;;
21554;SDS011;10938;44.794;-0.676;2023-03-12T09:37:50;23.40;;;12.10;;
21554;SDS011;10938;44.794;-0.676;2023-03-12T09:40:16;18.00;;;9.05;;
21554;SDS011;10938;44.794;-0.676;2023-03-12T09:42:45;16.23;;;5.32;;
21554;SDS011;10938;44.794;-0.676;2023-03-12T09:45:16;13.55;;;4.97;;
21554;SDS011;10938;44.794;-0.676;2023-03-12T09:47:46;13.80;;;5.53;;
21554;SDS011;10938;44.794;-0.676;2023-03-12T09:50:18;11.77;;;3.90;;
21554;SDS011;10938;44.794;-0.676;2023-03-12T09:52:47;8.88;;;2.97;;
21554;SDS011;10938;44.794;-0.676;2023-03-12T09:55:16;16.30;;;5.22;;
21554;SDS011;10938;44.794;-0.676;2023-03-12T09:57:43;13.15;;;3.70;;
21554;SDS011;10938;44.794;-0.676;2023-03-12T10:00:10;8.60;;;2.90;;
21554;SDS011;10938;44.794;-0.676;2023-03-12T10:07:45;9.10;;;2.33;;
21554;SDS011;10938;44.794;-0.676;2023-03-12T10:10:19;6.35;;;2.22;;
21554;SDS011;10938;44.794;-0.676;2023-03-12T10:12:53;8.40;;;2.20;;
21554;SDS011;10938;44.794;-0.676;2023-03-12T10:28:16;5.07;;;1.70;;
21554;SDS011;10938;44.794;-0.676;2023-03-12T10:30:44;9.70;;;4.05;;
21554;SDS011;10938;44.794;-0.676;2023-03-12T10:33:12;7.85;;;2.65;;
21554;SDS011;10938;44.794;-0.676;2023-03-12T10:35:39;10.15;;;3.00;;
21554;SDS011;10938;44.794;-0.676;2023-03-12T10:38:08;8.20;;;2.43;;
21554;SDS011;10938;44.794;-0.676;2023-03-12T10:40:35;6.15;;;2.22;;
21554;SDS011;10938;44.794;-0.676;2023-03-12T10:43:04;7.90;;;2.50;;
21554;SDS011;10938;44.794;-0.676;2023-03-12T10:48:18;11.98;;;3.67;;
21554;SDS011;10938;44.794;-0.676;2023-03-12T10:50:43;11.32;;;5.25;;
21554;SDS011;10938;44.794;-0.676;2023-03-12T10:53:27;9.48;;;3.88;;
21554;SDS011;10938;44.794;-0.676;2023-03-12T10:55:58;7.53;;;3.15;;
21554;SDS011;10938;44.794;-0.676;2023-03-12T10:58:23;6.68;;;2.78;;
21554;SDS011;10938;44.794;-0.676;2023-03-12T11:00:56;8.07;;;3.38;;
21554;SDS011;10938;44.794;-0.676;2023-03-12T11:03:22;6.00;;;3.10;;
21554;SDS011;10938;44.794;-0.676;2023-03-12T11:05:54;7.97;;;3.55;;
21554;SDS011;10938;44.794;-0.676;2023-03-12T11:10:45;9.77;;;2.47;;
21554;SDS011;10938;44.794;-0.676;2023-03-12T11:15:45;9.75;;;3.40;;
21554;SDS011;10938;44.794;-0.676;2023-03-12T11:20:43;10.23;;;2.40;;
21554;SDS011;10938;44.794;-0.676;2023-03-12T11:23:15;4.75;;;1.90;;
21554;SDS011;10938;44.794;-0.676;2023-03-12T11:25:41;6.28;;;2.20;;
21554;SDS011;10938;44.794;-0.676;2023-03-12T11:28:06;7.85;;;2.53;;
21554;SDS011;10938;44.794;-0.676;2023-03-12T11:30:40;8.15;;;2.85;;
21554;SDS011;10938;44.794;-0.676;2023-03-12T11:33:07;9.88;;;3.05;;
21554;SDS011;10938;44.794;-0.676;2023-03-12T11:38:02;7.40;;;2.95;;
21554;SDS011;10938;44.794;-0.676;2023-03-12T11:40:34;3.88;;;1.80;;
21554;SDS011;10938;44.794;-0.676;2023-03-12T11:53:40;4.07;;;1.50;;
21554;SDS011;10938;44.794;-0.676;2023-03-12T11:58:37;4.53;;;1.55;;
21554;SDS011;10938;44.794;-0.676;2023-03-12T12:01:12;3.55;;;1.40;;
21554;SDS011;10938;44.794;-0.676;2023-03-12T12:06:46;4.43;;;1.50;;
21554;SDS011;10938;44.794;-0.676;2023-03-12T12:11:36;4.30;;;1.13;;
21554;SDS011;10938;44.794;-0.676;2023-03-12T12:16:53;3.55;;;1.20;;
21554;SDS011;10938;44.794;-0.676;2023-03-12T12:27:27;5.63;;;2.22;;
21554;SDS011;10938;44.794;-0.676;2023-03-12T12:30:04;4.32;;;1.73;;
21554;SDS011;10938;44.794;-0.676;2023-03-12T12:35:37;10.65;;;4.20;;
21554;SDS011;10938;44.794;-0.676;2023-03-12T12:38:13;7.15;;;3.15;;
21554;SDS011;10938;44.794;-0.676;2023-03-12T12:40:42;4.93;;;3.22;;
21554;SDS011;10938;44.794;-0.676;2023-03-12T12:45:37;9.95;;;4.90;;
21554;SDS011;10938;44.794;-0.676;2023-03-12T12:50:47;14.52;;;8.02;;
21554;SDS011;10938;44.794;-0.676;2023-03-12T12:53:22;12.45;;;7.68;;
21554;SDS011;10938;44.794;-0.676;2023-03-12T12:56:05;13.73;;;8.73;;
21554;SDS011;10938;44.794;-0.676;2023-03-12T13:01:07;10.60;;;7.13;;
21554;SDS011;10938;44.794;-0.676;2023-03-12T13:03:33;12.82;;;9.15;;
21554;SDS011;10938;44.794;-0.676;2023-03-12T13:06:01;5.40;;;3.92;;
21554;SDS011;10938;44.794;-0.676;2023-03-12T13:09:03;4.75;;;2.72;;
21554;SDS011;10938;44.794;-0.676;2023-03-12T13:11:27;5.90;;;3.22;;
21554;SDS011;10938;44.794;-0.676;2023-03-12T13:16:41;6.22;;;3.97;;
21554;SDS011;10938;44.794;-0.676;2023-03-12T13:24:23;3.67;;;1.20;;
21554;SDS011;10938;44.794;-0.676;2023-03-12T13:29:34;2.58;;;0.65;;
21554;SDS011;10938;44.794;-0.676;2023-03-12T13:32:00;2.25;;;0.77;;
21554;SDS011;10938;44.794;-0.676;2023-03-12T13:36:51;6.13;;;3.10;;
21554;SDS011;10938;44.794;-0.676;2023-03-12T13:39:18;3.83;;;1.85;;
21554;SDS011;10938;44.794;-0.676;2023-03-12T13:41:48;3.97;;;1.50;;
21554;SDS011;10938;44.794;-0.676;2023-03-12T13:49:26;3.50;;;1.30;;
21554;SDS011;10938;44.794;-0.676;2023-03-12T13:51:54;3.15;;;1.08;;
21554;SDS011;10938;44.794;-0.676;2023-03-12T13:54:20;2.40;;;1.20;;
21554;SDS011;10938;44.794;-0.676;2023-03-12T13:56:56;2.15;;;1.00;;
21554;SDS011;10938;44.794;-0.676;2023-03-12T13:59:22;2.63;;;1.20;;
21554;SDS011;10938;44.794;-0.676;2023-03-12T14:01:49;2.35;;;1.10;;
21554;SDS011;10938;44.794;-0.676;2023-03-12T14:04:30;2.55;;;1.10;;
21554;SDS011;10938;44.794;-0.676;2023-03-12T14:09:49;3.08;;;1.52;;
21554;SDS011;10938;44.794;-0.676;2023-03-12T14:14:45;1.97;;;1.30;;
21554;SDS011;10938;44.794;-0.676;2023-03-12T14:17:15;3.45;;;1.30;;
21554;SDS011;10938;44.794;-0.676;2023-03-12T14:19:43;2.53;;;1.00;;
21554;SDS011;10938;44.794;-0.676;2023-03-12T14:22:09;1.33;;;1.08;;
21554;SDS011;10938;44.794;-0.676;2023-03-12T14:24:40;2.67;;;1.23;;
21554;SDS011;10938;44.794;-0.676;2023-03-12T14:27:11;1.50;;;0.95;;
21554;SDS011;10938;44.794;-0.676;2023-03-12T14:29:40;2.63;;;0.98;;
21554;SDS011;10938;44.794;-0.676;2023-03-12T14:32:19;2.45;;;1.55;;
21554;SDS011;10938;44.794;-0.676;2023-03-12T14:34:49;2.70;;;1.13;;
21554;SDS011;10938;44.794;-0.676;2023-03-12T14:37:17;2.08;;;1.20;;
21554;SDS011;10938;44.794;-0.676;2023-03-12T14:40:06;2.30;;;1.20;;
21554;SDS011;10938;44.794;-0.676;2023-03-12T14:42:33;2.50;;;1.05;;
21554;SDS011;10938;44.794;-0.676;2023-03-12T14:47:28;1.20;;;0.80;;
21554;SDS011;10938;44.794;-0.676;2023-03-12T14:49:54;2.08;;;1.20;;
21554;SDS011;10938;44.794;-0.676;2023-03-12T14:52:24;1.30;;;0.90;;
21554;SDS011;10938;44.794;-0.676;2023-03-12T14:57:21;3.03;;;1.63;;
21554;SDS011;10938;44.794;-0.676;2023-03-12T14:59:52;2.33;;;1.20;;
21554;SDS011;10938;44.794;-0.676;2023-03-12T15:02:18;2.47;;;1.15;;
21554;SDS011;10938;44.794;-0.676;2023-03-12T15:04:44;2.00;;;1.27;;
21554;SDS011;10938;44.794;-0.676;2023-03-12T15:07:10;1.20;;;0.90;;
21554;SDS011;10938;44.794;-0.676;2023-03-12T15:09:37;1.42;;;0.93;;
21554;SDS011;10938;44.794;-0.676;2023-03-12T15:12:17;2.45;;;1.15;;
21554;SDS011;10938;44.794;-0.676;2023-03-12T15:14:43;2.25;;;1.60;;
21554;SDS011;10938;44.794;-0.676;2023-03-12T15:17:16;1.67;;;1.10;;
21554;SDS011;10938;44.794;-0.676;2023-03-12T15:19:42;2.20;;;1.08;;
21554;SDS011;10938;44.794;-0.676;2023-03-12T15:22:12;1.23;;;1.00;;
21554;SDS011;10938;44.794;-0.676;2023-03-12T15:24:39;1.88;;;1.27;;
21554;SDS011;10938;44.794;-0.676;2023-03-12T15:30:20;1.80;;;1.30;;
21554;SDS011;10938;44.794;-0.676;2023-03-12T15:35:30;3.40;;;2.03;;
21554;SDS011;10938;44.794;-0.676;2023-03-12T15:37:55;3.15;;;1.85;;
21554;SDS011;10938;44.794;-0.676;2023-03-12T15:40:22;2.72;;;2.47;;
21554;SDS011;10938;44.794;-0.676;2023-03-12T15:42:48;4.25;;;3.03;;
21554;SDS011;10938;44.794;-0.676;2023-03-12T15:45:15;37.90;;;31.67;;
21554;SDS011;10938;44.794;-0.676;2023-03-12T15:47:42;9.95;;;8.00;;
21554;SDS011;10938;44.794;-0.676;2023-03-12T15:50:22;3.10;;;2.38;;
21554;SDS011;10938;44.794;-0.676;2023-03-12T15:53:02;4.35;;;3.95;;
21554;SDS011;10938;44.794;-0.676;2023-03-12T15:55:28;11.27;;;10.38;;
21554;SDS011;10938;44.794;-0.676;2023-03-12T15:57:54;38.95;;;35.95;;
21554;SDS011;10938;44.794;-0.676;2023-03-12T16:00:37;32.08;;;29.67;;
21554;SDS011;10938;44.794;-0.676;2023-03-12T16:03:13;12.05;;;11.05;;
21554;SDS011;10938;44.794;-0.676;2023-03-12T16:05:39;5.57;;;3.92;;
21554;SDS011;10938;44.794;-0.676;2023-03-12T16:08:15;5.05;;;4.20;;
21554;SDS011;10938;44.794;-0.676;2023-03-12T16:10:42;3.03;;;2.70;;
21554;SDS011;10938;44.794;-0.676;2023-03-12T16:13:09;5.18;;;4.45;;
21554;SDS011;10938;44.794;-0.676;2023-03-12T16:15:45;5.47;;;3.03;;
21554;SDS011;10938;44.794;-0.676;2023-03-12T16:18:12;4.78;;;3.63;;
21554;SDS011;10938;44.794;-0.676;2023-03-12T16:20:38;5.10;;;3.35;;
21554;SDS011;10938;44.794;-0.676;2023-03-12T16:23:03;5.47;;;2.67;;
21554;SDS011;10938;44.794;-0.676;2023-03-12T16:25:32;3.92;;;2.03;;
21554;SDS011;10938;44.794;-0.676;2023-03-12T16:27:59;3.75;;;1.95;;
21554;SDS011;10938;44.794;-0.676;2023-03-12T16:30:31;5.28;;;3.00;;